Middletown, Vermont
Current Conditions -  °F | °C
As of 6:54 AM on Thursday 29 Jan 2015 (Local Time) from KVSF Reporting Station
Clear Clear  
Wind Chill: -9°   Ceiling: Unl
Heat Index: -9°   Visibility: 9mi
Dew Point: -15°   Wind: 0mph
Humidity: 75%   Direction: NA
Pressure: 30.32"   Gusts: NA
Location:  43.2811°N, 72.6352°W
Report Text: KVSF 291154Z AUTO 00000KT 9SM CLR M23/M26 A3032 RMK AO2 SLP284 70004 I6000 T12281261 11194 21233 55001 TSNO
Loading
Personal Weather Stations






























Interactive Weather Map New forecast layout! Learn more

10-Day Weather Forecast

Advertisements
Track Severe Weather on mobile